Latest Weather Observations for Badgerys Creek

IDN60801

Issued at 6:23 pm EST Saturday 9 May 2026 (issued every 10 minutes, with the page automatically refreshed every 10 minutes)

About weather observations | Map of weather stations | Latest weather observations for NSW | Other Formats
Station Details ID: 067108 Name: BADGERYS CREEK AWS Lat: -33.90 Lon: 150.73 Height: 81.2 m
Data from the previous 72 hours. | See also: Recent months at Badgerys Creek
Date/Time
EST
Temp
°C
App
Temp
°C
Dew
Point
°C
Rel
Hum
%
Delta-T
°C
Wind Press
QNH
hPa
Press
MSL
hPa
Rain since
9am
mm
Dir  Spd
km/h
Gust
km/h
Spd
kts
Gust
kts
09/06:00pm 15.6 14.0 8.8 64 3.5 ESE 7 9 4 5 1024.9 1024.9 0.0
09/05:30pm 15.9 13.9 8.6 62 3.7 E 9 13 5 7 1024.5 1024.5 0.0
09/05:00pm 17.2 14.7 8.4 56 4.5 E 11 17 6 9 1024.1 1024.1 0.0
09/04:30pm 19.0 16.2 8.4 50 5.5 E 13 17 7 9 1023.7 1023.7 0.0
09/04:00pm 20.6 19.1 6.9 41 7.0 E 4 7 2 4 1023.3 1023.3 0.0
09/03:30pm 20.9 19.0 6.8 40 7.2 SE 6 15 3 8 1023.1 1023.1 0.0
09/03:00pm 22.3 21.4 7.7 39 7.6 SE 2 6 1 3 1023.1 1023.1 0.0
09/02:30pm 21.1 19.3 7.3 41 7.1 SE 6 9 3 5 1023.1 1023.1 0.0
09/02:00pm 21.1 19.1 7.0 40 7.2 SSE 7 13 4 7 1023.1 1023.1 0.0
09/01:30pm 21.0 19.2 7.3 41 7.1 SSE 6 13 3 7 1023.2 1023.2 0.0
09/01:00pm 20.7 18.7 7.3 42 6.9 S 7 11 4 6 1023.6 1023.6 0.0
09/12:30pm 20.9 19.0 7.5 42 6.9 W 7 13 4 7 1024.1 1024.1 0.0
09/12:00pm 20.6 18.8 7.2 42 6.8 SSW 6 13 3 7 1024.5 1024.5 0.0
09/11:30am 20.1 18.2 7.5 44 6.5 SSW 7 17 4 9 1024.8 1024.8 0.0
09/11:00am 19.2 17.2 7.3 46 6.0 SW 7 15 4 8 1025.1 1025.1 0.0
09/10:30am 19.0 17.3 8.4 50 5.5 SW 7 13 4 7 1025.3 1025.3 0.0
09/10:00am 17.7 16.0 8.3 54 4.8 WSW 7 11 4 6 1025.5 1025.5 0.0
09/09:30am 17.3 16.8 9.5 60 4.1 NW 2 4 1 2 1025.5 1025.5 0.0
09/09:00am 14.5 14.2 8.5 67 3.0 CALM 0 6 0 3 1025.5 1025.5 0.0
09/08:30am 13.4 12.9 9.5 77 2.0 NW 2 6 1 3 1025.5 1025.5 0.0
09/08:00am 10.6 10.7 10.3 98 0.2 CALM 0 0 0 0 1025.2 1025.2 0.0
09/07:30am 6.6 5.7 6.2 97 0.2 CALM 0 0 0 0 1024.9 1024.9 0.0
09/07:00am 5.2 3.2 4.5 95 0.3 NW 4 6 2 3 1024.7 1024.7 0.0
09/06:30am 5.0 3.3 4.0 93 0.4 NW 2 6 1 3 1024.2 1024.2 0.0
09/06:00am 6.0 4.8 4.8 92 0.5 CALM 0 0 0 0 1024.0 1024.0 0.0
09/05:30am 6.2 4.6 4.7 90 0.7 NW 2 4 1 2 1023.6 1023.6 0.0
09/05:00am 6.8 4.9 5.0 88 0.8 NW 4 7 2 4 1023.3 1023.3 0.0
09/04:30am 7.5 5.4 5.8 89 0.8 NW 6 6 3 3 1023.0 1023.0 0.0
09/04:00am 6.3 4.6 4.0 85 1.0 NW 2 6 1 3 1022.8 1022.8 0.0
09/03:30am 7.7 6.7 5.8 88 0.9 CALM 0 0 0 0 1022.6 1022.6 0.0
09/03:00am 8.2 7.4 6.7 90 0.7 CALM 0 2 0 1 1022.6 1022.6 0.0
09/02:30am 6.7 5.2 5.2 90 0.7 NW 2 4 1 2 1022.7 1022.7 0.0
09/02:00am 6.8 5.2 4.6 86 1.0 NW 2 4 1 2 1022.6 1022.6 0.0
09/01:30am 8.2 7.1 5.3 82 1.3 CALM 0 0 0 0 1022.5 1022.5 0.0
09/01:00am 8.8 7.9 5.9 82 1.3 CALM 0 0 0 0 1022.7 1022.7 0.0
09/12:30am 8.5 6.1 5.1 79 1.5 NW 7 9 4 5 1022.6 1022.6 0.0
09/12:00am 11.6 10.4 6.5 71 2.4 WSW 2 4 1 2 1022.4 1022.4 0.0
 
Date/Time
EST
Temp
°C
App
Temp
°C
Dew
Point
°C
Rel
Hum
%
Delta-T
°C
Wind Press
QNH
hPa
Press
MSL
hPa
Rain since
9am
mm
Dir  Spd
km/h
Gust
km/h
Spd
kts
Gust
kts
08/11:30pm 11.1 9.0 6.0 71 2.4 WSW 6 7 3 4 1022.3 1022.3 0.0
08/11:00pm 11.4 9.4 6.1 70 2.5 WSW 6 9 3 5 1022.3 1022.3 0.0
08/10:30pm 11.6 9.6 6.3 70 2.5 WSW 6 7 3 4 1022.3 1022.3 0.0
08/10:00pm 11.0 9.7 6.0 71 2.3 WSW 2 4 1 2 1022.3 1022.3 0.0
08/09:30pm 11.5 8.5 6.2 70 2.5 WSW 11 13 6 7 1022.1 1022.1 0.0
08/09:00pm 12.6 10.6 6.4 66 2.9 SSW 6 7 3 4 1022.0 1022.0 0.0
08/08:30pm 12.1 9.9 6.2 67 2.8 WSW 7 11 4 6 1021.6 1021.5 0.0
08/08:00pm 12.6 10.0 6.2 65 3.0 SW 9 13 5 7 1021.4 1021.3 0.0
08/07:30pm 12.7 9.4 6.3 65 3.0 SW 13 19 7 10 1021.0 1020.9 0.0
08/07:00pm 13.2 10.6 6.3 63 3.3 SW 9 15 5 8 1020.7 1020.6 0.0
08/06:30pm 13.4 10.0 5.8 60 3.6 SW 13 19 7 10 1020.4 1020.3 0.0
08/06:00pm 14.4 11.5 6.3 58 3.9 SW 11 17 6 9 1019.9 1019.8 0.0
08/05:30pm 14.5 11.1 5.8 56 4.2 WSW 13 19 7 10 1019.4 1019.3 0.0
08/05:00pm 16.2 11.4 5.8 50 5.0 W 20 32 11 17 1018.8 1018.7 0.0
08/04:30pm 17.0 11.5 5.9 48 5.4 W 24 33 13 18 1018.1 1018.0 0.0
08/04:00pm 18.3 12.8 5.8 44 6.1 W 24 35 13 19 1017.7 1017.6 0.0
08/03:30pm 19.6 14.9 6.0 41 6.8 WSW 20 28 11 15 1017.3 1017.3 0.0
08/03:00pm 20.0 15.4 5.6 39 7.1 W 19 26 10 14 1017.0 1017.0 0.0
08/02:30pm 19.8 14.1 5.1 38 7.2 W 24 35 13 19 1016.6 1016.6 0.0
08/02:00pm 20.1 15.2 5.0 37 7.4 W 20 33 11 18 1016.3 1016.3 0.0
08/01:30pm 19.7 13.6 5.0 38 7.2 W 26 33 14 18 1016.5 1016.5 0.0
08/01:00pm 19.8 14.5 5.1 38 7.2 W 22 37 12 20 1016.9 1016.9 0.0
08/12:30pm 19.3 13.9 4.6 38 7.1 WSW 22 44 12 24 1017.3 1017.3 0.0
08/12:00pm 19.1 14.1 4.8 39 6.9 WSW 20 32 11 17 1017.7 1017.6 0.0
08/11:30am 19.0 14.0 4.7 39 6.9 WSW 20 30 11 16 1018.0 1017.9 0.0
08/11:00am 18.3 11.8 4.8 41 6.5 WSW 28 37 15 20 1018.5 1018.4 0.0
08/10:30am 17.5 11.3 4.5 42 6.2 WSW 26 35 14 19 1018.7 1018.6 0.0
08/10:00am 16.8 12.1 5.1 46 5.6 WSW 19 26 10 14 1018.9 1018.8 0.0
08/09:30am 15.7 9.9 4.4 47 5.3 WSW 24 32 13 17 1018.7 1018.6 0.0
08/09:00am 15.5 11.9 5.1 50 4.9 WSW 13 20 7 11 1018.8 1018.7 0.0
08/08:30am 12.9 10.9 4.3 56 3.9 NNW 4 7 2 4 1018.8 1018.7 0.0
08/08:00am 12.2 8.5 4.2 58 3.6 NW 13 15 7 8 1018.4 1018.3 0.0
08/07:30am 9.5 6.9 4.1 69 2.4 NW 7 9 4 5 1018.4 1018.3 0.0
08/07:00am 8.4 5.4 2.2 65 2.6 WNW 7 9 4 5 1018.3 1018.2 0.0
08/06:30am 8.1 5.1 1.9 65 2.6 WNW 7 9 4 5 1018.4 1018.3 0.0
08/06:00am 8.2 5.2 2.0 65 2.6 W 7 15 4 8 1018.4 1018.3 0.0
08/05:30am 8.2 5.5 2.4 67 2.4 WSW 6 9 3 5 1018.2 1018.1 0.0
08/05:00am 7.0 4.5 1.3 67 2.3 W 4 6 2 3 1018.3 1018.2 0.0
08/04:30am 8.1 5.1 1.7 64 2.6 SW 7 11 4 6 1018.4 1018.3 0.0
08/04:00am 8.6 5.8 2.0 63 2.7 WSW 6 7 3 4 1018.2 1018.1 0.0
08/03:30am 7.8 4.4 1.9 66 2.4 SW 9 11 5 6 1018.3 1018.2 0.0
08/03:00am 8.2 5.7 1.6 63 2.7 SW 4 7 2 4 1018.9 1018.8 0.0
08/02:30am 8.9 6.4 1.6 60 3.0 SSW 4 7 2 4 1019.0 1018.9 0.0
08/02:00am 9.2 6.7 1.4 58 3.2 WSW 4 11 2 6 1019.1 1019.0 0.0
08/01:30am 8.5 3.9 1.4 61 2.9 WSW 15 19 8 10 1019.4 1019.3 0.0
08/01:00am 8.2 4.6 0.7 59 3.0 SW 9 17 5 9 1019.7 1019.6 0.0
08/12:30am 8.3 4.3 0.5 58 3.1 SW 11 22 6 12 1020.0 1019.9 0.0
08/12:00am 8.8 5.7 0.0 54 3.5 SW 6 7 3 4 1020.1 1020.0 0.0
 
Date/Time
EST
Temp
°C
App
Temp
°C
Dew
Point
°C
Rel
Hum
%
Delta-T
°C
Wind Press
QNH
hPa
Press
MSL
hPa
Rain since
9am
mm
Dir  Spd
km/h
Gust
km/h
Spd
kts
Gust
kts
07/11:30pm 8.6 4.5 -0.2 54 3.5 WSW 11 17 6 9 1019.9 1019.8 0.0
07/11:00pm 10.0 3.8 -0.2 49 4.1 WSW 22 30 12 16 1019.7 1019.6 0.0
07/10:30pm 10.2 4.0 0.0 49 4.1 WSW 22 33 12 18 1019.6 1019.5 0.0
07/10:00pm 8.8 5.1 0.0 54 3.5 WSW 9 17 5 9 1020.1 1020.0 0.0
07/09:30pm 9.1 5.3 -0.5 51 3.8 WSW 9 17 5 9 1020.1 1020.0 0.0
07/09:00pm 10.4 5.1 -0.4 47 4.3 W 17 24 9 13 1019.9 1019.8 0.0
07/08:30pm 10.3 4.4 -0.8 46 4.4 WSW 20 33 11 18 1019.7 1019.6 0.0
07/08:00pm 11.0 3.2 -0.8 44 4.7 WSW 30 39 16 21 1019.1 1019.0 0.0
07/07:30pm 11.1 4.0 -1.0 43 4.8 WSW 26 37 14 20 1019.0 1018.9 0.0
07/07:00pm 11.6 4.1 -1.2 41 5.1 WSW 28 39 15 21 1018.7 1018.6 0.0
07/06:30pm 11.6 4.1 -1.2 41 5.1 WSW 28 43 15 23 1018.3 1018.2 0.0
07/06:00pm 11.5 5.6 -0.9 42 5.0 WSW 20 28 11 15 1017.8 1017.7 0.0
07/05:30pm 12.0 4.5 -1.5 39 5.4 WSW 28 39 15 21 1017.2 1017.2 0.0
07/05:14pm 12.4 4.5 -1.5 38 5.6 WSW 30 50 16 27 1017.0 1017.0 0.0
07/05:00pm 12.7 4.8 -1.6 37 5.7 WSW 30 43 16 23 1016.8 1016.8 0.0
07/04:32pm 13.5 5.0 -1.6 35 6.1 WSW 33 52 18 28 1016.7 1016.7 0.0
07/04:30pm 13.5 4.6 -1.6 35 6.1 WSW 35 52 19 28 1016.7 1016.7 0.0
07/04:14pm 13.9 5.7 -1.3 35 6.2 W 32 52 17 28 1016.6 1016.6 0.0
07/04:00pm 14.3 5.5 -1.3 34 6.4 WSW 35 52 19 28 1016.5 1016.5 0.0
07/03:30pm 14.5 5.3 -1.6 33 6.6 WSW 37 52 20 28 1016.4 1016.4 0.0
07/03:00pm 15.2 6.3 -2.2 30 7.0 SW 35 50 19 27 1016.0 1016.0 0.0
07/02:53pm 15.3 7.7 -2.2 30 7.1 SW 28 50 15 27 1015.8 1015.8 0.0
07/02:30pm 15.6 8.0 -2.3 29 7.3 WSW 28 41 15 22 1015.7 1015.7 0.0
07/02:00pm 15.8 6.4 -3.1 27 7.5 SW 37 59 20 32 1015.2 1015.2 0.0
07/01:33pm 17.0 8.8 -1.1 29 7.6 WSW 32 52 17 28 1015.0 1015.0 0.0
07/01:30pm 16.4 7.5 -2.1 28 7.6 WSW 35 52 19 28 1014.9 1014.9 0.0
07/01:20pm 16.3 8.3 -2.2 28 7.6 WSW 30 48 16 26 1014.9 1014.9 0.0
07/01:00pm 16.1 6.3 -3.4 26 7.8 WSW 39 57 21 31 1014.9 1014.9 0.0
07/12:51pm 16.4 8.4 -2.6 27 7.7 W 30 52 16 28 1014.9 1014.9 0.0
07/12:30pm 16.6 8.6 -2.5 27 7.8 WSW 30 43 16 23 1015.0 1015.0 0.0
07/12:00pm 16.8 9.6 -1.8 28 7.7 W 26 37 14 20 1015.2 1015.2 0.0
07/11:30am 16.0 7.0 -3.0 27 7.6 WSW 35 48 19 26 1015.5 1015.5 0.0
07/11:00am 15.6 6.6 -0.2 34 6.7 WSW 37 57 20 31 1015.3 1015.3 0.0
07/10:56am 15.5 7.7 1.6 39 6.1 WSW 32 50 17 27 1015.3 1015.3 0.0
07/10:30am 13.7 6.3 4.8 55 4.1 WSW 33 52 18 28 1015.0 1015.0 0.0
07/10:25am 13.4 6.6 5.3 58 3.8 SW 30 52 16 28 1015.1 1015.1 0.0
07/10:00am 14.0 6.6 5.1 55 4.2 WSW 33 52 18 28 1014.8 1014.8 0.0
07/09:58am 14.7 8.3 5.0 52 4.6 WSW 28 52 15 28 1014.8 1014.8 0.0
07/09:30am 17.9 16.7 7.9 52 5.1 NNE 4 7 2 4 1014.1 1014.1 0.0
07/09:00am 16.1 15.0 8.3 60 4.0 NNE 4 6 2 3 1014.2 1014.2 0.0
07/08:30am 13.6 11.7 7.6 67 3.0 NE 7 9 4 5 1014.2 1014.2 0.0
07/08:00am 12.7 11.1 8.2 74 2.2 NNE 6 7 3 4 1014.0 1014.0 0.0
07/07:30am 10.6 8.6 6.2 74 2.1 NNE 6 9 3 5 1013.7 1013.7 0.0
07/07:00am 9.3 7.0 4.7 73 2.1 N 6 7 3 4 1013.5 1013.5 0.0
07/06:30am 10.0 7.2 5.2 72 2.2 NNW 9 11 5 6 1013.3 1013.3 0.0
07/06:00am 8.9 5.2 4.5 74 2.0 WNW 13 15 7 8 1013.3 1013.3 0.0
07/05:30am 9.0 6.8 6.1 82 1.3 W 7 9 4 5 1013.6 1013.6 0.0
07/05:00am 9.6 7.5 6.7 82 1.4 WSW 7 9 4 5 1013.6 1013.6 0.0
07/04:30am 8.3 6.3 6.9 91 0.7 WSW 7 17 4 9 1013.4 1013.4 0.0
07/04:00am 9.0 7.1 7.6 91 0.7 W 7 9 4 5 1013.2 1013.2 0.0
07/03:30am 8.0 5.3 7.4 96 0.3 WSW 11 15 6 8 1013.7 1013.7 0.0
07/03:00am 7.4 5.3 6.5 94 0.4 SW 7 13 4 7 1013.9 1013.9 0.0
07/02:30am 9.9 9.5 9.8 99 0.1 SW 2 6 1 3 1014.0 1014.0 0.0
07/02:00am 8.9 6.9 8.8 99 0.0 SW 9 13 5 7 1014.4 1014.4 0.0
07/01:30am 7.9 5.3 7.6 98 0.1 NW 11 13 6 7 1014.6 1014.6 0.0
07/01:00am 9.7 8.9 9.6 99 0.1 NW 4 6 2 3 1014.8 1014.8 0.0
07/12:30am 9.8 9.4 9.7 99 0.1 NW 2 4 1 2 1014.9 1014.9 0.0
07/12:00am 9.6 8.3 9.1 97 0.2 NNW 6 7 3 4 1015.1 1015.1 0.0
 
Date/Time
EST
Temp
°C
App
Temp
°C
Dew
Point
°C
Rel
Hum
%
Delta-T
°C
Wind Press
QNH
hPa
Press
MSL
hPa
Rain since
9am
mm
Dir  Spd
km/h
Gust
km/h
Spd
kts
Gust
kts
06/11:30pm 10.8 10.2 10.3 97 0.3 N 4 6 2 3 1015.1 1015.1 0.0
06/11:00pm 10.7 10.0 9.9 95 0.4 W 4 7 2 4 1015.2 1015.2 0.0
06/10:30pm 11.6 10.8 11.0 96 0.3 W 6 7 3 4 1015.6 1015.6 0.0
06/10:00pm 11.2 9.6 10.1 93 0.6 SE 9 13 5 7 1016.0 1016.0 0.0
06/09:30pm 12.3 12.2 10.9 91 0.7 SE 2 4 1 2 1016.3 1016.3 0.0
06/09:00pm 12.6 12.2 11.2 91 0.7 SE 4 6 2 3 1016.5 1016.5 0.0
06/08:30pm 12.4 12.3 9.4 82 1.5 CALM 0 0 0 0 1016.5 1016.5 0.0
06/08:00pm 14.2 14.5 11.0 81 1.7 CALM 0 0 0 0 1016.4 1016.4 0.0
06/07:30pm 14.5 14.7 10.5 77 2.1 CALM 0 0 0 0 1016.5 1016.5 0.0
06/07:00pm 15.1 15.2 10.3 73 2.5 CALM 0 0 0 0 1016.4 1016.4 0.0
06/06:30pm 16.2 15.2 10.9 71 2.8 SE 7 11 4 6 1016.3 1016.3 0.0

Other formats

Comma delimited format used in spreadsheet applications
http://www.bom.gov.au/fwo/IDN60801/IDN60801.94752.axf

JavaScript Object Notation format (JSON) in row-major order
http://www.bom.gov.au/fwo/IDN60801/IDN60801.94752.json

Data quality

Most of these data are generated automatically and are frequently updated. Quality checks on data are not normally performed. It is possible for incorrect values to appear. Refer to information at About Latest Weather Observations and please check the disclaimer before using these data.